Terminal Aerodrome Forecast
Issued by NWS Bismarck, ND

Home | Current Version | Previous Version | Text Only | Print | Product List | Glossary Off
Versions: 1 2 3 4 5 6 7 8 9 10 11 12 13 14 15 16

321
FTUS43 KBIS 071013 AAA
TAFISN
TAF AMD
KISN 071013Z 0710/0806 30025G35KT 6SM -SN OVC035 WS005/34020KT
     FM071200 31031G47KT P6SM VCSH OVC025
     FM071500 32031G47KT P6SM OVC020
     FM072100 32027G38KT P6SM BKN035
     FM080400 31021G29KT P6SM SCT150=

USA.gov is the U.S. government's official web portal to all federal, state and local government web resources and services.